Time;durP1;ratioP1;P1;durP2;ratioP2;P2;SDS_P1;SDS_P2;PMS_P1;PMS_P2;Temp;Humidity;BMP_temperature;BMP_pressure;BME280_temperature;BME280_humidity;BME280_pressure;Samples;Min_cycle;Max_cycle;Signal;HPM_P1;HPM_P2
2022/11/13 00:00:48;;;;;;;3.65;2.55;;;15.60;85.90;;;;;;5034738;28;20090;-75
2022/11/13 00:03:14;;;;;;;3.17;2.40;;;15.50;85.80;;;;;;5052334;28;20095;-75
2022/11/13 00:05:39;;;;;;;2.50;2.30;;;15.60;85.90;;;;;;5050978;28;20143;-75
2022/11/13 00:08:05;;;;;;;4.65;2.92;;;15.50;85.80;;;;;;5034934;28;20030;-75
2022/11/13 00:10:31;;;;;;;4.75;2.75;;;15.50;85.80;;;;;;5032179;28;20025;-75
2022/11/13 00:12:56;;;;;;;4.38;2.90;;;15.50;85.80;;;;;;5031058;28;20075;-75
2022/11/13 00:15:22;;;;;;;2.78;2.53;;;15.50;85.80;;;;;;5032914;28;20492;-75
2022/11/13 00:17:48;;;;;;;3.90;2.55;;;15.50;85.80;;;;;;5036062;28;20104;-75
2022/11/13 00:20:13;;;;;;;3.28;2.80;;;15.50;85.80;;;;;;5034856;28;20108;-75
2022/11/13 00:22:39;;;;;;;2.92;2.60;;;15.50;85.80;;;;;;5036172;28;20053;-75
2022/11/13 00:25:05;;;;;;;3.03;2.60;;;15.50;85.90;;;;;;5034905;28;20030;-75
2022/11/13 00:27:30;;;;;;;3.97;2.65;;;15.50;85.80;;;;;;5034725;28;20499;-75
2022/11/13 00:29:56;;;;;;;3.13;2.40;;;15.50;85.80;;;;;;5034902;28;20087;-75
2022/11/13 00:32:22;;;;;;;2.72;2.53;;;15.60;85.90;;;;;;5034442;28;20036;-75
2022/11/13 00:34:47;;;;;;;3.95;2.50;;;15.50;85.80;;;;;;5034802;28;20108;-75
2022/11/13 00:37:13;;;;;;;3.05;2.53;;;15.50;85.80;;;;;;5034751;28;20053;-75
2022/11/13 00:39:38;;;;;;;2.58;2.38;;;15.60;85.90;;;;;;5035824;28;20056;-75
2022/11/13 00:42:04;;;;;;;3.88;2.38;;;15.50;85.80;;;;;;5034586;28;20052;-75
2022/11/13 00:44:30;;;;;;;3.63;2.60;;;15.50;85.80;;;;;;5034550;28;20056;-75
2022/11/13 00:46:56;;;;;;;2.50;2.30;;;15.50;85.80;;;;;;5048473;28;20542;-75
2022/11/13 00:49:21;;;;;;;2.70;2.45;;;15.60;85.90;;;;;;5054407;28;20514;-75
2022/11/13 00:51:47;;;;;;;2.85;2.40;;;15.50;85.80;;;;;;5055542;28;20379;-75
2022/11/13 00:54:12;;;;;;;2.72;2.40;;;15.50;85.80;;;;;;5054199;28;20518;-75
2022/11/13 00:56:38;;;;;;;4.63;2.53;;;15.50;85.80;;;;;;5055236;28;20037;-75
2022/11/13 00:59:04;;;;;;;3.28;2.35;;;15.50;85.80;;;;;;5054274;28;20029;-75
2022/11/13 01:01:29;;;;;;;3.28;2.72;;;15.50;85.80;;;;;;5055128;28;20021;-75
2022/11/13 01:03:55;;;;;;;2.50;2.30;;;15.50;85.80;;;;;;5055421;28;20025;-75
2022/11/13 01:06:23;;;;;;;3.40;2.70;;;15.50;85.80;;;;;;5034537;28;20380;-75
2022/11/13 01:08:49;;;;;;;3.72;2.47;;;15.50;85.80;;;;;;5034121;28;20472;-75
2022/11/13 01:11:16;;;;;;;3.00;2.70;;;15.50;85.80;;;;;;5034005;28;20029;-75
2022/11/13 01:13:43;;;;;;;2.80;2.50;;;15.50;85.80;;;;;;5034101;28;20052;-75
2022/11/13 01:16:10;;;;;;;2.45;2.25;;;15.50;85.80;;;;;;5034934;28;20025;-75
2022/11/13 01:18:35;;;;;;;3.47;2.60;;;15.50;85.80;;;;;;5033941;28;20037;-75
2022/11/13 01:21:05;;;;;;;2.65;2.28;;;15.50;85.80;;;;;;5033804;28;20025;-75
2022/11/13 01:23:31;;;;;;;3.00;2.63;;;15.50;85.80;;;;;;5033869;28;20030;-75
2022/11/13 01:26:08;;;;;;;2.83;2.63;;;15.50;85.80;;;;;;5033487;28;20384;-75
2022/11/13 01:28:34;;;;;;;2.85;2.50;;;15.50;85.80;;;;;;5033714;28;20048;-75
2022/11/13 01:31:03;;;;;;;3.30;2.60;;;15.50;85.80;;;;;;5033587;28;20069;-75
2022/11/13 01:33:28;;;;;;;2.50;2.30;;;15.50;85.80;;;;;;5034756;28;20022;-75
2022/11/13 01:35:59;;;;;;;3.72;2.40;;;15.50;85.80;;;;;;5034797;28;20028;-75
2022/11/13 01:38:25;;;;;;;2.42;2.22;;;15.50;85.80;;;;;;5033586;28;20079;-75
2022/11/13 01:40:50;;;;;;;3.03;2.67;;;15.50;85.80;;;;;;5033320;28;20507;-75
2022/11/13 01:43:27;;;;;;;2.88;2.60;;;15.50;85.80;;;;;;5033297;28;20032;-75
2022/11/13 01:45:58;;;;;;;2.97;2.58;;;15.50;85.80;;;;;;5039153;28;20039;-75
2022/11/13 01:48:38;;;;;;;2.78;2.40;;;15.50;85.80;;;;;;5054374;28;20025;-75
2022/11/13 01:51:07;;;;;;;2.55;2.35;;;15.50;85.80;;;;;;5036997;28;20032;-75
2022/11/13 01:53:33;;;;;;;3.20;2.40;;;15.50;85.80;;;;;;5036841;28;20047;-75
2022/11/13 01:55:58;;;;;;;3.05;2.63;;;15.50;85.80;;;;;;5053145;28;20021;-75
2022/11/13 01:58:24;;;;;;;3.45;2.63;;;15.50;85.80;;;;;;5053935;28;20407;-75
2022/11/13 02:00:50;;;;;;;4.00;2.78;;;15.50;85.80;;;;;;5054152;28;20491;-75
2022/11/13 02:03:15;;;;;;;3.20;2.63;;;15.50;85.80;;;;;;5053020;28;20036;-75
2022/11/13 02:05:41;;;;;;;2.78;2.47;;;15.50;85.80;;;;;;5052926;28;20029;-75
2022/11/13 02:08:07;;;;;;;2.92;2.40;;;15.50;85.80;;;;;;5019095;28;20029;-75
2022/11/13 02:10:32;;;;;;;3.00;2.10;;;15.50;85.90;;;;;;5033159;28;20017;-75
2022/11/13 02:12:58;;;;;;;3.10;2.50;;;15.50;85.80;;;;;;5033689;28;20472;-75
2022/11/13 02:15:24;;;;;;;3.30;2.33;;;15.50;85.80;;;;;;5032875;28;20243;-75
2022/11/13 02:17:52;;;;;;;2.63;2.42;;;15.50;85.80;;;;;;5032965;28;20025;-75
2022/11/13 02:20:42;;;;;;;2.40;2.17;;;15.50;85.80;;;;;;5032674;28;20104;-75
2022/11/13 02:23:14;;;;;;;3.03;2.50;;;15.50;85.80;;;;;;5032836;28;20033;-75
2022/11/13 02:25:40;;;;;;;2.72;2.28;;;15.50;85.80;;;;;;5032492;28;20029;-75
2022/11/13 02:28:05;;;;;;;3.33;2.80;;;15.50;85.80;;;;;;5032399;28;20388;-75
2022/11/13 02:30:32;;;;;;;2.50;2.30;;;15.50;85.80;;;;;;5032576;28;20018;-75
2022/11/13 02:32:58;;;;;;;3.25;2.53;;;15.50;85.80;;;;;;5015934;28;20040;-75
2022/11/13 02:35:26;;;;;;;2.95;2.22;;;15.50;85.80;;;;;;5032523;28;20022;-75
2022/11/13 02:37:53;;;;;;;3.30;2.33;;;15.50;85.80;;;;;;5031706;28;20021;-75
2022/11/13 02:40:19;;;;;;;3.30;2.50;;;15.50;85.80;;;;;;5015779;28;20515;-75
2022/11/13 02:42:45;;;;;;;3.10;2.50;;;15.50;86.80;;;;;;5032045;28;20029;-75
2022/11/13 02:45:10;;;;;;;2.90;2.60;;;15.50;85.80;;;;;;5032337;28;20022;-75
2022/11/13 02:47:36;;;;;;;3.15;2.63;;;15.50;85.80;;;;;;5053223;28;20037;-75
2022/11/13 02:50:02;;;;;;;3.65;2.72;;;15.50;85.80;;;;;;5053276;28;20046;-75
2022/11/13 02:52:29;;;;;;;2.85;2.60;;;15.50;85.80;;;;;;5052054;28;20033;-75
2022/11/13 02:54:54;;;;;;;2.58;2.38;;;15.50;85.80;;;;;;5053011;28;20051;-75
2022/11/13 02:57:20;;;;;;;2.65;2.42;;;15.50;85.80;;;;;;5051701;28;20499;-75
2022/11/13 02:59:46;;;;;;;2.90;2.60;;;15.50;85.80;;;;;;5053127;28;20495;-75
2022/11/13 03:02:11;;;;;;;2.22;2.03;;;15.50;85.80;;;;;;5035284;28;20112;-75
2022/11/13 03:04:37;;;;;;;2.58;2.38;;;15.50;85.80;;;;;;5053106;28;20021;-75
2022/11/13 03:07:02;;;;;;;3.55;2.05;;;15.50;85.80;;;;;;5026625;28;20128;-75
2022/11/13 03:09:28;;;;;;;2.47;2.28;;;15.50;85.80;;;;;;5031846;28;20053;-75
2022/11/13 03:11:54;;;;;;;2.47;2.28;;;15.50;85.80;;;;;;5032730;28;20030;-75
2022/11/13 03:14:20;;;;;;;6.82;3.10;;;15.50;85.80;;;;;;5031777;28;20029;-75
2022/11/13 03:16:46;;;;;;;2.45;2.22;;;15.50;85.80;;;;;;5032711;28;20029;-75
2022/11/13 03:19:11;;;;;;;2.63;2.20;;;15.50;85.80;;;;;;5031831;28;20032;-75
2022/11/13 03:21:37;;;;;;;2.58;2.30;;;15.50;85.80;;;;;;5032935;28;20033;-75
2022/11/13 03:24:03;;;;;;;2.63;2.42;;;15.40;85.80;;;;;;5032768;28;20496;-75
2022/11/13 03:26:28;;;;;;;3.75;2.30;;;15.50;85.80;;;;;;5032618;28;20029;-75
2022/11/13 03:28:54;;;;;;;2.50;2.30;;;15.50;85.80;;;;;;5031384;28;20396;-75
2022/11/13 03:31:20;;;;;;;2.90;2.55;;;15.50;85.80;;;;;;5031401;28;20053;-75
2022/11/13 03:33:45;;;;;;;4.32;2.60;;;15.50;85.80;;;;;;5031454;28;20463;-75
2022/11/13 03:36:11;;;;;;;2.78;2.45;;;15.40;85.80;;;;;;5032679;28;20022;-75
2022/11/13 03:38:37;;;;;;;2.50;2.28;;;15.40;85.70;;;;;;5032713;28;20059;-75
2022/11/13 03:41:02;;;;;;;2.80;2.47;;;15.40;85.70;;;;;;5032259;28;20105;-75
2022/11/13 03:43:28;;;;;;;2.92;2.28;;;15.40;85.70;;;;;;5032572;28;20014;-75
2022/11/13 03:45:54;;;;;;;2.33;2.13;;;15.40;85.70;;;;;;5020655;28;20048;-75
2022/11/13 03:48:19;;;;;;;2.67;2.45;;;15.50;85.80;;;;;;5051325;28;20025;-75
2022/11/13 03:50:47;;;;;;;3.85;2.60;;;15.50;85.80;;;;;;5050982;28;20025;-75
2022/11/13 03:53:13;;;;;;;2.22;2.03;;;15.40;85.70;;;;;;5034942;28;20096;-75
2022/11/13 03:55:39;;;;;;;2.35;2.00;;;15.40;86.70;;;;;;5050897;28;20104;-75
2022/11/13 03:58:04;;;;;;;2.75;2.55;;;15.40;85.70;;;;;;5051130;28;20052;-75
2022/11/13 04:00:30;;;;;;;3.33;2.42;;;15.50;85.80;;;;;;5034423;28;20578;-75
2022/11/13 04:02:56;;;;;;;2.95;2.60;;;15.40;85.70;;;;;;5018026;28;20078;-75
2022/11/13 04:05:21;;;;;;;3.00;2.45;;;15.40;85.70;;;;;;5051261;28;20052;-75
2022/11/13 04:07:47;;;;;;;2.95;2.60;;;15.40;85.70;;;;;;5037454;28;20396;-75
2022/11/13 04:10:13;;;;;;;2.58;2.38;;;15.50;85.80;;;;;;5031174;28;20488;-75
2022/11/13 04:12:39;;;;;;;2.72;2.30;;;15.40;85.70;;;;;;5031042;28;20026;-75
2022/11/13 04:15:05;;;;;;;3.20;2.35;;;15.40;85.70;;;;;;5031013;28;20064;-75
2022/11/13 04:17:30;;;;;;;2.67;2.10;;;15.40;85.70;;;;;;5031112;28;20018;-75
2022/11/13 04:19:56;;;;;;;2.92;2.63;;;15.40;85.70;;;;;;5032184;28;20033;-75
2022/11/13 04:22:22;;;;;;;3.40;2.47;;;15.40;85.80;;;;;;5030997;28;20415;-75
2022/11/13 04:24:47;;;;;;;3.30;2.33;;;15.40;85.70;;;;;;5030799;28;20029;-75
2022/11/13 04:27:13;;;;;;;2.40;2.20;;;15.40;85.70;;;;;;5032215;28;20017;-75
2022/11/13 04:29:39;;;;;;;2.70;2.50;;;15.40;85.70;;;;;;5032177;28;20235;-75
2022/11/13 04:32:05;;;;;;;3.20;2.38;;;15.40;85.70;;;;;;5031846;28;20411;-75
2022/11/13 04:34:30;;;;;;;2.65;2.45;;;15.40;85.70;;;;;;5031061;28;20029;-75
2022/11/13 04:36:56;;;;;;;2.80;2.60;;;15.40;85.80;;;;;;5030859;28;20450;-75
2022/11/13 04:39:21;;;;;;;2.67;2.47;;;15.40;85.80;;;;;;5031841;28;20067;-75
2022/11/13 04:44:31;;;;;;;2.80;2.45;;;15.40;85.80;;;;;;5031941;28;20407;-75
2022/11/13 04:46:57;;;;;;;2.40;2.15;;;15.40;85.80;;;;;;5046312;28;20091;-75
2022/11/13 04:49:22;;;;;;;3.03;2.72;;;15.40;85.80;;;;;;5051785;28;20064;-75
2022/11/13 04:51:48;;;;;;;4.03;2.28;;;15.40;85.70;;;;;;5051500;28;20104;-75
2022/11/13 04:54:14;;;;;;;2.38;2.17;;;15.40;85.70;;;;;;5051855;28;20021;-75
2022/11/13 04:56:39;;;;;;;3.17;2.80;;;15.40;85.80;;;;;;5050407;28;20041;-75
2022/11/13 04:59:05;;;;;;;2.75;2.55;;;15.40;85.70;;;;;;5050539;28;20025;-75
2022/11/13 05:01:31;;;;;;;2.60;2.40;;;15.40;85.70;;;;;;5052528;28;20032;-75
2022/11/13 05:03:56;;;;;;;3.35;2.60;;;15.40;85.70;;;;;;5055309;28;20334;-75
2022/11/13 05:06:22;;;;;;;2.80;2.40;;;15.40;85.80;;;;;;5052124;28;20029;-75
2022/11/13 05:08:47;;;;;;;4.88;3.05;;;15.40;85.80;;;;;;5033981;28;20029;-75
2022/11/13 05:11:13;;;;;;;2.53;2.33;;;15.40;85.80;;;;;;5035319;28;20407;-75
2022/11/13 05:13:39;;;;;;;3.90;2.70;;;15.40;85.80;;;;;;5035387;28;20492;-75
2022/11/13 05:16:06;;;;;;;2.33;2.13;;;15.40;85.80;;;;;;5033852;28;20396;-75
2022/11/13 05:18:33;;;;;;;2.60;2.40;;;15.40;85.70;;;;;;5033932;28;20396;-75
2022/11/13 05:20:58;;;;;;;2.70;2.15;;;15.40;85.80;;;;;;5033570;28;20143;-75
2022/11/13 05:23:24;;;;;;;2.72;2.28;;;15.40;85.80;;;;;;5033802;28;20107;-75
2022/11/13 05:25:50;;;;;;;2.58;2.35;;;15.40;85.80;;;;;;5033813;28;20040;-75
2022/11/13 05:28:15;;;;;;;2.67;2.30;;;15.40;85.80;;;;;;5035001;28;20035;-75
2022/11/13 05:30:41;;;;;;;3.95;2.78;;;15.40;85.70;;;;;;5033784;28;20084;-75
2022/11/13 05:33:07;;;;;;;2.67;2.47;;;15.40;85.80;;;;;;5033653;28;20029;-75
2022/11/13 05:35:32;;;;;;;2.50;2.30;;;15.40;85.80;;;;;;5034592;28;20444;-75
2022/11/13 05:38:01;;;;;;;2.92;2.40;;;15.40;85.80;;;;;;5034737;28;20036;-75
2022/11/13 05:40:27;;;;;;;3.08;2.78;;;15.40;85.80;;;;;;5033744;28;20043;-75
2022/11/13 05:42:53;;;;;;;2.95;2.65;;;15.40;85.80;;;;;;5034610;28;20056;-75
2022/11/13 05:45:19;;;;;;;2.70;2.50;;;15.40;85.80;;;;;;5035696;28;20053;-75
2022/11/13 05:47:45;;;;;;;2.90;2.60;;;15.40;85.90;;;;;;5036797;28;20444;-75
2022/11/13 05:50:10;;;;;;;3.75;2.72;;;15.40;85.80;;;;;;5036497;28;20052;-75
2022/11/13 05:52:36;;;;;;;2.63;2.42;;;15.40;85.80;;;;;;5053454;28;20052;-75
2022/11/13 05:55:02;;;;;;;2.90;2.67;;;15.40;85.70;;;;;;5054416;28;20025;-75
2022/11/13 05:57:28;;;;;;;3.03;2.67;;;15.40;85.70;;;;;;5052899;28;20048;-75
2022/11/13 05:59:53;;;;;;;4.15;2.80;;;15.40;85.80;;;;;;5053363;28;20025;-75
2022/11/13 06:02:19;;;;;;;2.90;2.45;;;15.40;85.80;;;;;;5053096;28;20100;-75
2022/11/13 06:04:46;;;;;;;2.45;2.25;;;15.30;85.70;;;;;;5054034;28;20035;-75
2022/11/13 06:07:12;;;;;;;3.03;2.25;;;15.40;85.80;;;;;;5043251;28;20021;-75
2022/11/13 06:09:37;;;;;;;3.22;2.53;;;15.40;85.80;;;;;;5034242;28;20103;-75
2022/11/13 06:12:03;;;;;;;2.58;2.38;;;15.30;85.70;;;;;;5032672;28;20576;-75
2022/11/13 06:14:29;;;;;;;3.25;2.72;;;15.30;85.80;;;;;;5033108;28;20028;-75
2022/11/13 06:16:55;;;;;;;3.75;2.50;;;15.40;85.80;;;;;;5032691;28;20051;-75
2022/11/13 06:19:20;;;;;;;3.58;2.53;;;15.40;85.70;;;;;;5033682;28;20028;-75
2022/11/13 06:21:46;;;;;;;3.40;2.55;;;15.30;85.70;;;;;;5032768;28;20157;-75
2022/11/13 06:24:12;;;;;;;4.30;2.80;;;15.30;85.80;;;;;;5034012;28;20030;-75
2022/11/13 06:26:37;;;;;;;2.38;2.17;;;15.30;85.70;;;;;;5033815;28;20373;-75
2022/11/13 06:29:04;;;;;;;3.65;2.70;;;15.40;85.80;;;;;;5032609;28;20040;-75
2022/11/13 06:31:32;;;;;;;2.53;2.33;;;15.40;85.90;;;;;;5032686;28;20039;-75
2022/11/13 06:33:58;;;;;;;3.63;2.70;;;15.40;85.80;;;;;;5032337;28;20021;-75
2022/11/13 06:36:25;;;;;;;4.03;2.63;;;15.30;85.70;;;;;;5032370;28;20013;-75
2022/11/13 06:38:51;;;;;;;2.65;2.45;;;15.30;85.70;;;;;;5032432;28;20542;-75
2022/11/13 06:41:21;;;;;;;2.95;2.65;;;15.40;85.80;;;;;;5032570;28;20022;-75
2022/11/13 06:43:47;;;;;;;3.22;2.75;;;15.30;85.70;;;;;;5032243;28;20411;-75
2022/11/13 06:46:21;;;;;;;2.70;2.50;;;15.40;85.80;;;;;;5040585;28;20024;-75
2022/11/13 06:48:47;;;;;;;3.40;2.92;;;15.30;85.80;;;;;;5052063;28;20035;-75
2022/11/13 06:51:14;;;;;;;3.83;2.60;;;15.40;85.80;;;;;;5053197;28;20104;-75
2022/11/13 06:53:40;;;;;;;3.80;3.00;;;15.40;85.80;;;;;;5052062;28;20021;-75
2022/11/13 06:56:06;;;;;;;3.60;2.53;;;15.30;85.70;;;;;;5053299;28;20072;-75
2022/11/13 06:58:32;;;;;;;2.97;2.78;;;15.30;85.80;;;;;;5051906;28;20517;-75
2022/11/13 07:01:03;;;;;;;3.20;2.72;;;15.30;85.70;;;;;;5035335;28;20063;-75
2022/11/13 07:03:29;;;;;;;2.83;2.28;;;15.40;85.80;;;;;;5035874;28;20025;-75
2022/11/13 07:05:54;;;;;;;3.08;2.60;;;15.40;85.80;;;;;;5051837;28;20531;-75
2022/11/13 07:08:20;;;;;;;3.05;2.75;;;15.30;85.80;;;;;;5032497;28;20037;-75
2022/11/13 07:10:53;;;;;;;3.90;3.00;;;15.30;85.80;;;;;;5033037;28;20021;-75
2022/11/13 07:13:19;;;;;;;3.25;2.95;;;15.30;85.80;;;;;;5032070;28;20026;-75
2022/11/13 07:15:45;;;;;;;3.33;2.80;;;15.30;85.80;;;;;;5015091;28;20499;-75
2022/11/13 07:18:10;;;;;;;2.85;2.47;;;15.30;85.80;;;;;;5032709;28;20021;-75
2022/11/13 07:20:36;;;;;;;3.30;3.00;;;15.30;85.80;;;;;;5032921;28;20028;-75
2022/11/13 07:23:02;;;;;;;2.78;2.58;;;15.30;85.80;;;;;;5032837;28;20033;-75
2022/11/13 07:25:28;;;;;;;2.97;2.53;;;15.30;85.80;;;;;;5031368;28;20033;-75
2022/11/13 07:27:53;;;;;;;3.13;2.45;;;15.30;85.80;;;;;;5031434;28;20036;-75
2022/11/13 07:30:19;;;;;;;3.30;2.60;;;15.30;85.80;;;;;;5031647;28;20033;-75
2022/11/13 07:32:45;;;;;;;3.40;2.50;;;15.30;85.80;;;;;;5032386;28;20029;-75
2022/11/13 07:35:11;;;;;;;2.83;2.63;;;15.30;85.80;;;;;;5032691;28;20398;-75
2022/11/13 07:37:36;;;;;;;3.25;2.78;;;15.40;85.90;;;;;;5031495;28;20423;-75
2022/11/13 07:40:02;;;;;;;4.13;2.90;;;15.30;85.80;;;;;;5031397;28;20022;-75
2022/11/13 07:42:28;;;;;;;2.65;2.45;;;15.30;85.80;;;;;;5031382;28;20025;-75
2022/11/13 07:44:54;;;;;;;3.47;2.55;;;15.30;85.80;;;;;;5032562;28;20079;-75
2022/11/13 07:47:19;;;;;;;3.25;2.70;;;15.30;85.80;;;;;;5049735;28;20553;-75
2022/11/13 07:49:45;;;;;;;4.40;2.90;;;15.30;85.80;;;;;;5051346;28;20112;-75
2022/11/13 07:52:10;;;;;;;2.92;2.55;;;15.40;85.80;;;;;;5051046;28;20040;-75
2022/11/13 07:54:36;;;;;;;3.40;2.72;;;15.30;85.80;;;;;;5052413;28;20025;-75
2022/11/13 07:57:02;;;;;;;2.90;2.53;;;15.30;85.80;;;;;;5052203;28;20459;-75
2022/11/13 07:59:27;;;;;;;2.90;2.70;;;15.30;85.80;;;;;;5051106;28;20067;-75
2022/11/13 08:01:53;;;;;;;3.63;2.70;;;15.30;85.80;;;;;;5050881;28;20048;-75
2022/11/13 08:04:19;;;;;;;3.55;2.72;;;15.30;85.80;;;;;;5052206;28;20032;-75
2022/11/13 08:06:44;;;;;;;2.80;2.38;;;15.30;85.80;;;;;;5045068;28;20083;-75
2022/11/13 08:09:10;;;;;;;3.65;2.72;;;15.30;85.80;;;;;;5014544;28;20384;-75
2022/11/13 08:11:35;;;;;;;2.30;2.10;;;15.30;85.80;;;;;;5031970;28;20033;-75
2022/11/13 08:14:01;;;;;;;3.00;2.58;;;15.30;85.80;;;;;;5032264;28;20029;-75
2022/11/13 08:16:27;;;;;;;2.33;2.13;;;15.30;85.80;;;;;;5030842;28;20025;-75
2022/11/13 08:18:52;;;;;;;2.70;2.50;;;15.30;85.80;;;;;;5031046;28;20021;-75
2022/11/13 08:21:20;;;;;;;2.70;2.50;;;15.30;85.80;;;;;;5032146;28;20029;-75
2022/11/13 08:23:45;;;;;;;2.78;2.53;;;15.30;85.80;;;;;;5031127;28;20025;-75
2022/11/13 08:26:11;;;;;;;3.85;2.92;;;15.30;85.80;;;;;;5030841;28;20518;-75
2022/11/13 08:28:37;;;;;;;3.35;2.70;;;15.30;85.80;;;;;;5031162;28;20032;-75
2022/11/13 08:31:02;;;;;;;3.22;2.92;;;15.30;85.80;;;;;;5031852;28;20032;-75
2022/11/13 08:33:28;;;;;;;2.78;2.47;;;15.30;85.80;;;;;;5032075;28;20026;-75
2022/11/13 08:35:55;;;;;;;3.35;2.60;;;15.30;85.80;;;;;;5031042;28;20066;-75
2022/11/13 08:38:22;;;;;;;2.90;2.60;;;15.30;85.80;;;;;;5018160;28;20434;-75
2022/11/13 08:40:47;;;;;;;3.25;2.70;;;15.30;85.80;;;;;;5035764;28;20491;-75
2022/11/13 08:43:13;;;;;;;3.00;2.60;;;15.30;85.80;;;;;;5034540;28;20037;-75
2022/11/13 08:45:39;;;;;;;3.08;2.60;;;15.30;85.80;;;;;;5039122;28;20025;-75
2022/11/13 08:48:04;;;;;;;3.58;2.70;;;15.30;85.80;;;;;;5055457;28;20029;-75
2022/11/13 08:50:31;;;;;;;3.03;2.72;;;15.30;85.80;;;;;;5054644;28;20017;-75
2022/11/13 08:52:57;;;;;;;2.83;2.53;;;15.30;85.80;;;;;;5055480;28;20391;-75
2022/11/13 08:55:23;;;;;;;2.80;2.60;;;15.30;85.80;;;;;;5037915;28;20024;-75
2022/11/13 08:57:49;;;;;;;3.20;2.90;;;15.30;85.80;;;;;;5054158;28;20071;-75
2022/11/13 09:00:15;;;;;;;2.83;2.63;;;15.30;85.80;;;;;;5054079;28;20475;-75
2022/11/13 09:02:42;;;;;;;4.85;2.47;;;15.30;85.80;;;;;;5037699;28;20057;-75
2022/11/13 09:05:08;;;;;;;2.90;2.65;;;15.30;85.80;;;;;;5055215;28;20024;-75
2022/11/13 09:07:33;;;;;;;3.45;2.42;;;15.30;85.80;;;;;;5024866;28;20039;-75
2022/11/13 09:09:59;;;;;;;7.45;2.45;;;15.30;85.90;;;;;;5035281;28;20450;-75
2022/11/13 09:12:25;;;;;;;3.80;2.45;;;15.30;85.90;;;;;;5034015;28;20376;-75
2022/11/13 09:14:50;;;;;;;2.50;2.30;;;15.30;85.80;;;;;;5033985;28;20032;-75
2022/11/13 09:17:16;;;;;;;2.60;2.40;;;15.30;85.90;;;;;;5034940;28;20411;-75
2022/11/13 09:19:42;;;;;;;4.97;2.65;;;15.30;85.80;;;;;;5033944;28;20050;-75
2022/11/13 09:22:08;;;;;;;2.60;2.40;;;15.30;85.90;;;;;;5033900;28;20535;-75
2022/11/13 09:24:33;;;;;;;2.67;2.30;;;15.30;85.80;;;;;;5034099;28;20117;-75
2022/11/13 09:26:59;;;;;;;2.33;2.13;;;15.30;85.90;;;;;;5034959;28;20037;-75
2022/11/13 09:29:27;;;;;;;3.33;2.58;;;15.30;85.80;;;;;;5033400;28;20116;-75
2022/11/13 09:31:53;;;;;;;2.45;2.25;;;15.30;85.90;;;;;;5033902;28;20029;-75
2022/11/13 09:34:19;;;;;;;2.72;2.53;;;15.30;85.80;;;;;;5033582;28;20484;-75
2022/11/13 09:36:44;;;;;;;3.65;2.65;;;15.30;85.80;;;;;;5033674;28;20033;-75
2022/11/13 09:39:10;;;;;;;3.70;2.28;;;15.30;85.90;;;;;;5034997;28;20030;-75
2022/11/13 09:41:46;;;;;;;3.17;2.53;;;15.30;85.90;;;;;;5033368;28;20025;-75
2022/11/13 09:44:23;;;;;;;2.60;2.40;;;15.30;85.90;;;;;;5033549;28;20025;-75
2022/11/13 09:47:08;;;;;;;3.47;2.47;;;15.30;85.90;;;;;;5047846;28;20028;-75
2022/11/13 09:49:45;;;;;;;2.60;2.40;;;15.30;85.90;;;;;;5053382;28;20032;-75
2022/11/13 09:52:13;;;;;;;2.75;2.53;;;15.30;85.90;;;;;;5036823;28;20064;-75
2022/11/13 09:54:39;;;;;;;2.60;2.40;;;15.30;85.90;;;;;;5054637;28;20021;-75
2022/11/13 09:57:11;;;;;;;3.25;2.30;;;15.30;85.90;;;;;;5053938;28;20411;-75
2022/11/13 09:59:39;;;;;;;2.30;2.03;;;15.30;85.90;;;;;;5053066;28;20107;-75
2022/11/13 10:02:10;;;;;;;3.33;2.60;;;15.30;86.00;;;;;;5053136;28;20479;-75
2022/11/13 10:04:57;;;;;;;2.65;2.45;;;15.30;85.90;;;;;;5054284;28;20025;-75
2022/11/13 10:07:54;;;;;;;2.90;2.60;;;15.30;85.90;;;;;;5041805;28;20025;-75
2022/11/13 10:10:49;;;;;;;2.78;2.15;;;15.30;85.90;;;;;;5033629;28;20483;-75
2022/11/13 10:13:23;;;;;;;2.50;2.30;;;15.30;85.90;;;;;;5016448;28;20035;-75
2022/11/13 10:15:51;;;;;;;3.17;2.53;;;15.30;85.90;;;;;;5032766;28;20064;-75
2022/11/13 10:18:25;;;;;;;2.88;2.60;;;15.30;85.90;;;;;;5016362;28;20037;-75
2022/11/13 10:20:56;;;;;;;3.08;2.40;;;15.30;85.90;;;;;;5032841;28;20037;-75
2022/11/13 10:23:36;;;;;;;2.70;2.30;;;15.30;86.00;;;;;;5032819;28;20025;-75
2022/11/13 10:26:19;;;;;;;3.22;2.33;;;15.30;86.00;;;;;;5032559;28;20443;-75
2022/11/13 10:28:44;;;;;;;2.78;2.58;;;15.30;85.90;;;;;;5032558;28;20434;-75
2022/11/13 10:31:10;;;;;;;3.13;2.40;;;15.30;85.90;;;;;;5033786;28;20029;-75
2022/11/13 10:33:36;;;;;;;2.50;2.25;;;15.30;86.00;;;;;;5032589;28;20022;-75
2022/11/13 10:36:31;;;;;;;2.42;2.22;;;15.30;86.00;;;;;;5032432;28;20025;-75
2022/11/13 10:39:08;;;;;;;2.42;2.17;;;15.30;85.90;;;;;;5032718;28;20144;-75
2022/11/13 10:41:47;;;;;;;2.80;2.50;;;15.30;86.00;;;;;;5032393;28;20055;-75
2022/11/13 10:44:28;;;;;;;2.72;2.53;;;15.30;86.00;;;;;;5015682;28;20029;-75
2022/11/13 10:47:24;;;;;;;2.45;2.25;;;15.30;86.00;;;;;;5046244;28;20017;-75
2022/11/13 10:49:49;;;;;;;2.20;2.00;;;15.30;86.00;;;;;;5047827;28;20033;-75
2022/11/13 10:52:17;;;;;;;2.88;2.63;;;15.30;86.00;;;;;;5053108;28;20024;-75
2022/11/13 10:54:42;;;;;;;3.47;2.58;;;15.30;86.00;;;;;;5052060;28;20017;-75
2022/11/13 10:57:34;;;;;;;2.58;2.38;;;15.30;86.00;;;;;;5035410;28;20047;-75
2022/11/13 11:00:00;;;;;;;3.78;2.67;;;15.30;86.00;;;;;;5052421;28;20047;-75
2022/11/13 11:02:26;;;;;;;3.00;2.58;;;15.30;86.10;;;;;;5035249;28;20104;-75
2022/11/13 11:05:05;;;;;;;2.50;2.25;;;15.30;86.00;;;;;;5051777;28;20029;-75
2022/11/13 11:07:34;;;;;;;2.85;2.40;;;15.30;86.00;;;;;;5039531;28;20495;-75
2022/11/13 11:09:59;;;;;;;2.30;2.10;;;15.30;86.10;;;;;;5031799;28;20055;-75
2022/11/13 11:12:25;;;;;;;2.67;2.28;;;15.30;86.00;;;;;;5031753;28;20555;-75
2022/11/13 11:15:00;;;;;;;2.75;2.50;;;15.30;86.00;;;;;;5031726;28;20117;-75
2022/11/13 11:17:36;;;;;;;4.00;2.30;;;15.30;86.10;;;;;;5032778;28;20017;-75
2022/11/13 11:20:04;;;;;;;3.22;2.33;;;15.30;86.10;;;;;;5031702;28;20506;-75
2022/11/13 11:22:32;;;;;;;3.60;2.42;;;15.30;86.10;;;;;;5015322;28;20021;-75
2022/11/13 11:25:05;;;;;;;3.90;2.40;;;15.30;86.10;;;;;;5031366;28;20040;-75
2022/11/13 11:27:49;;;;;;;3.28;2.25;;;15.30;86.10;;;;;;5031713;28;20028;-75
2022/11/13 11:30:22;;;;;;;3.53;2.20;;;15.30;86.10;;;;;;5031669;28;20117;-75
2022/11/13 11:32:55;;;;;;;2.83;2.53;;;15.30;86.10;;;;;;5031550;28;20025;-75
2022/11/13 11:35:23;;;;;;;3.80;2.45;;;15.30;86.10;;;;;;5031738;28;20049;-75
2022/11/13 11:38:00;;;;;;;3.42;2.20;;;15.30;86.10;;;;;;5031354;28;20040;-75
2022/11/13 11:40:44;;;;;;;2.50;2.30;;;15.30;86.10;;;;;;5015040;28;20452;-75
2022/11/13 11:43:15;;;;;;;4.05;2.30;;;15.30;86.10;;;;;;5031460;28;20026;-75
2022/11/13 11:45:42;;;;;;;3.55;2.42;;;15.40;86.20;;;;;;5036517;28;20028;-75
2022/11/13 11:48:13;;;;;;;2.50;2.22;;;15.30;86.10;;;;;;5034698;28;20021;-75
2022/11/13 11:50:52;;;;;;;3.13;2.58;;;15.40;86.20;;;;;;5034874;28;20025;-75
2022/11/13 11:53:29;;;;;;;2.78;2.35;;;15.30;86.10;;;;;;5035552;28;20021;-75
2022/11/13 11:56:14;;;;;;;2.65;2.35;;;15.40;86.20;;;;;;5051394;28;20025;-75
2022/11/13 11:58:57;;;;;;;2.72;2.35;;;15.40;86.20;;;;;;5051011;28;20064;-75
2022/11/13 12:01:54;;;;;;;3.80;2.30;;;15.40;86.20;;;;;;5052308;28;20053;-75
2022/11/13 12:04:25;;;;;;;2.28;2.08;;;15.40;86.20;;;;;;5034342;28;20499;-75
2022/11/13 12:07:03;;;;;;;2.58;2.33;;;15.40;86.20;;;;;;5045074;28;20029;-75
2022/11/13 12:09:37;;;;;;;2.53;2.33;;;15.40;87.20;;;;;;5032325;28;20025;-75
2022/11/13 12:12:16;;;;;;;2.60;2.40;;;15.40;86.30;;;;;;5034770;28;20026;-75
2022/11/13 12:15:02;;;;;;;5.03;2.40;;;15.40;86.30;;;;;;5035149;28;20022;-75
2022/11/13 12:17:46;;;;;;;3.03;2.38;;;15.40;86.30;;;;;;5035041;28;20091;-75
2022/11/13 12:20:35;;;;;;;2.30;2.10;;;15.40;86.30;;;;;;5036229;28;20017;-75
2022/11/13 12:23:01;;;;;;;2.95;2.35;;;15.40;86.30;;;;;;5053762;28;20033;-75
2022/11/13 12:25:33;;;;;;;2.67;2.20;;;15.40;86.30;;;;;;5053879;28;20037;-75
2022/11/13 12:28:04;;;;;;;3.55;2.63;;;15.40;86.40;;;;;;5038143;28;20037;-75
2022/11/13 12:30:51;;;;;;;2.38;2.17;;;15.40;87.50;;;;;;5037101;28;20454;-75
2022/11/13 12:33:54;;;;;;;2.40;2.20;;;15.40;86.40;;;;;;5037212;28;20036;-75
2022/11/13 12:36:19;;;;;;;2.70;2.50;;;15.40;86.40;;;;;;5013720;28;20431;-75
2022/11/13 12:38:55;;;;;;;4.03;2.15;;;15.40;86.50;;;;;;5013994;28;20030;-75
2022/11/13 12:41:28;;;;;;;2.67;2.15;;;15.40;86.50;;;;;;5013905;28;20038;-75
2022/11/13 12:44:15;;;;;;;2.58;2.38;;;15.50;86.60;;;;;;5014192;28;20085;-75
2022/11/13 12:46:41;;;;;;;3.25;2.40;;;15.50;86.50;;;;;;5025967;28;20041;-75
2022/11/13 12:49:26;;;;;;;3.47;2.00;;;15.50;86.60;;;;;;5033478;28;20061;-75
2022/11/13 12:52:02;;;;;;;4.72;2.50;;;15.50;86.60;;;;;;5033171;28;20127;-75
2022/11/13 12:54:33;;;;;;;2.72;2.25;;;15.50;86.60;;;;;;5033234;28;20075;-75
2022/11/13 12:57:16;;;;;;;2.78;2.20;;;15.50;86.60;;;;;;5032774;28;20046;-75